createdAt,value
2017-10-13T00:01:13.426Z,12.90
2017-10-13T00:03:43.174Z,12.90
2017-10-13T00:06:13.305Z,12.90
2017-10-13T00:08:43.987Z,12.90
2017-10-13T00:11:13.998Z,12.90
2017-10-13T00:13:44.392Z,12.90
2017-10-13T00:16:13.728Z,12.90
2017-10-13T00:18:43.963Z,12.90
2017-10-13T00:21:13.457Z,12.90
2017-10-13T00:23:42.729Z,12.90
2017-10-13T00:26:12.897Z,12.90
2017-10-13T00:28:42.042Z,12.90
2017-10-13T00:31:11.178Z,12.90
2017-10-13T00:33:42.118Z,12.90
2017-10-13T00:36:11.243Z,12.90
2017-10-13T00:38:42.051Z,12.90
2017-10-13T00:41:11.253Z,12.90
2017-10-13T00:43:40.347Z,12.90
2017-10-13T00:46:09.500Z,12.90
2017-10-13T00:48:39.705Z,12.90
2017-10-13T00:51:09.518Z,12.90
2017-10-13T00:53:38.690Z,13.00
2017-10-13T00:56:07.967Z,13.00
2017-10-13T00:58:37.166Z,13.00
2017-10-13T01:01:06.311Z,13.00
2017-10-13T01:03:35.485Z,13.00
2017-10-13T01:06:04.635Z,13.10
2017-10-13T01:08:33.743Z,13.00
2017-10-13T01:11:02.957Z,13.10
2017-10-13T01:13:32.096Z,13.00
2017-10-13T01:16:01.974Z,13.00
2017-10-13T01:18:31.701Z,12.90
2017-10-13T01:21:00.818Z,12.90
2017-10-13T01:23:29.960Z,12.90
2017-10-13T01:26:00.958Z,12.70
2017-10-13T01:28:30.081Z,12.70
2017-10-13T01:30:59.249Z,12.80
2017-10-13T01:33:28.582Z,12.70
2017-10-13T01:35:57.782Z,12.80
2017-10-13T01:38:26.910Z,12.80
2017-10-13T01:40:56.211Z,12.80
2017-10-13T01:43:25.438Z,12.80
2017-10-13T01:45:54.566Z,12.70
2017-10-13T01:48:23.881Z,12.70
2017-10-13T01:50:53.030Z,12.70
2017-10-13T01:53:22.288Z,12.80
2017-10-13T01:55:52.420Z,12.80
2017-10-13T01:58:21.519Z,12.70
2017-10-13T02:00:50.639Z,12.80
2017-10-13T02:03:20.764Z,12.80
2017-10-13T02:05:49.908Z,12.80
2017-10-13T02:08:19.824Z,12.80
2017-10-13T02:10:48.966Z,12.80
2017-10-13T02:13:18.120Z,12.80
2017-10-13T02:15:47.672Z,12.70
2017-10-13T02:18:16.901Z,12.60
2017-10-13T02:20:46.820Z,12.50
2017-10-13T02:23:16.751Z,12.40
2017-10-13T02:25:47.687Z,12.40
2017-10-13T02:28:16.811Z,12.40
2017-10-13T02:30:46.720Z,12.20
2017-10-13T02:33:16.759Z,12.20
2017-10-13T02:35:46.682Z,12.20
2017-10-13T02:38:15.846Z,12.20
2017-10-13T02:40:45.021Z,12.20
2017-10-13T02:43:15.636Z,12.10
2017-10-13T02:45:45.555Z,12.10
2017-10-13T02:48:15.560Z,12.00
2017-10-13T02:50:44.711Z,12.00
2017-10-13T02:53:14.620Z,12.00
2017-10-13T02:55:43.778Z,12.00
2017-10-13T02:58:12.976Z,12.00
2017-10-13T03:00:42.857Z,12.00
2017-10-13T03:03:12.019Z,12.00
2017-10-13T03:05:41.148Z,12.00
2017-10-13T03:08:11.243Z,12.00
2017-10-13T03:10:41.934Z,11.90
2017-10-13T03:13:11.042Z,11.90
2017-10-13T03:15:40.141Z,11.80
2017-10-13T03:18:09.347Z,11.80
2017-10-13T03:20:38.447Z,11.70
2017-10-13T03:23:07.641Z,11.60
2017-10-13T03:25:37.627Z,11.50
2017-10-13T03:28:06.758Z,11.50
2017-10-13T03:30:36.187Z,11.50
2017-10-13T03:33:06.898Z,11.40
2017-10-13T03:35:37.011Z,11.40
2017-10-13T03:38:07.474Z,11.40
2017-10-13T03:40:36.635Z,11.40
2017-10-13T03:43:06.576Z,11.40
2017-10-13T03:45:36.043Z,11.30
2017-10-13T03:48:05.153Z,11.30
2017-10-13T03:50:34.317Z,11.30
2017-10-13T03:53:04.162Z,11.40
2017-10-13T03:55:33.298Z,11.40
2017-10-13T03:58:02.478Z,11.40
2017-10-13T04:00:32.818Z,11.50
2017-10-13T04:03:01.951Z,11.40
2017-10-13T04:05:31.148Z,11.40
2017-10-13T04:08:00.874Z,11.40
2017-10-13T04:10:30.150Z,11.40
2017-10-13T04:13:00.483Z,11.30
2017-10-13T04:15:31.001Z,11.20
2017-10-13T04:18:00.330Z,11.20
2017-10-13T04:20:29.705Z,11.10
2017-10-13T04:22:59.007Z,11.10
2017-10-13T04:25:28.187Z,11.10
2017-10-13T04:27:57.504Z,11.10
2017-10-13T04:30:27.214Z,11.00
2017-10-13T04:32:56.561Z,11.00
2017-10-13T04:35:25.878Z,10.90
2017-10-13T04:37:55.116Z,10.90
2017-10-13T04:40:24.390Z,10.90
2017-10-13T04:42:53.479Z,10.80
2017-10-13T04:45:22.610Z,10.80
2017-10-13T04:47:51.730Z,10.80
2017-10-13T04:50:21.534Z,10.80
2017-10-13T04:52:50.677Z,10.80
2017-10-13T04:55:19.774Z,10.80
2017-10-13T04:57:48.869Z,10.70
2017-10-13T05:00:19.554Z,10.70
2017-10-13T05:02:49.415Z,10.60
2017-10-13T05:05:18.512Z,10.70
2017-10-13T05:07:48.480Z,10.60
2017-10-13T05:10:17.781Z,10.60
2017-10-13T05:12:46.932Z,10.50
2017-10-13T05:15:16.151Z,10.50
2017-10-13T05:17:46.068Z,10.50
2017-10-13T05:20:15.182Z,10.40
2017-10-13T05:22:44.330Z,10.50
2017-10-13T05:25:13.455Z,10.50
2017-10-13T05:27:42.572Z,10.50
2017-10-13T05:30:11.870Z,10.50
2017-10-13T05:32:41.003Z,10.50
2017-10-13T05:35:10.115Z,10.50
2017-10-13T05:37:39.629Z,10.50
2017-10-13T05:40:08.767Z,10.50
2017-10-13T05:42:37.914Z,10.50
2017-10-13T05:45:07.364Z,10.50
2017-10-13T05:47:36.466Z,10.40
2017-10-13T05:50:05.606Z,10.40
2017-10-13T05:52:35.556Z,10.30
2017-10-13T05:55:05.442Z,10.30
2017-10-13T05:57:34.585Z,10.30
2017-10-13T06:00:04.583Z,10.30
2017-10-13T06:02:33.749Z,10.30
2017-10-13T06:05:03.005Z,10.40
2017-10-13T06:07:32.556Z,10.40
2017-10-13T06:10:02.741Z,10.40
2017-10-13T06:12:32.034Z,10.40
2017-10-13T06:15:02.252Z,10.40
2017-10-13T06:17:32.244Z,10.40
2017-10-13T06:20:01.512Z,10.40
2017-10-13T06:22:30.896Z,10.40
2017-10-13T06:25:01.015Z,10.50
2017-10-13T06:27:30.232Z,10.50
2017-10-13T06:29:59.428Z,10.50
2017-10-13T06:32:28.588Z,10.50
2017-10-13T06:34:57.726Z,10.50
2017-10-13T06:37:27.026Z,10.60
2017-10-13T06:39:56.225Z,10.50
2017-10-13T06:42:25.452Z,10.60
2017-10-13T06:44:55.035Z,10.70
2017-10-13T06:47:24.256Z,10.60
2017-10-13T06:49:53.376Z,10.70
2017-10-13T06:52:22.859Z,10.70
2017-10-13T06:54:53.510Z,10.80
2017-10-13T06:57:24.641Z,10.80
2017-10-13T06:59:54.517Z,10.80
2017-10-13T07:02:23.778Z,10.90
2017-10-13T07:04:53.818Z,10.90
2017-10-13T07:07:22.954Z,11.00
2017-10-13T07:09:52.922Z,11.20
2017-10-13T07:12:22.854Z,11.20
2017-10-13T07:14:51.980Z,11.20
2017-10-13T07:17:21.177Z,11.30
2017-10-13T07:19:51.575Z,11.50
2017-10-13T07:22:21.491Z,11.50
2017-10-13T07:24:50.647Z,11.50
2017-10-13T07:27:19.944Z,11.60
2017-10-13T07:29:49.130Z,11.80
2017-10-13T07:32:19.055Z,11.80
2017-10-13T07:34:48.978Z,11.70
2017-10-13T07:37:18.983Z,11.60
2017-10-13T07:39:48.129Z,11.60
2017-10-13T07:42:18.201Z,11.70
2017-10-13T07:44:47.301Z,11.70
2017-10-13T07:47:16.417Z,11.70
2017-10-13T07:49:47.217Z,11.80
2017-10-13T07:52:17.098Z,11.90
2017-10-13T07:54:46.264Z,11.90
2017-10-13T07:57:15.491Z,11.90
2017-10-13T07:59:44.611Z,12.00
2017-10-13T08:02:13.759Z,12.00
2017-10-13T08:04:42.921Z,12.00
2017-10-13T08:07:12.018Z,12.00
2017-10-13T08:09:41.143Z,12.00
2017-10-13T08:12:11.695Z,12.10
2017-10-13T08:14:40.788Z,12.10
2017-10-13T08:17:09.882Z,12.20
2017-10-13T08:19:39.026Z,12.30
2017-10-13T08:22:09.152Z,12.30
2017-10-13T08:24:39.118Z,12.20
2017-10-13T08:27:08.310Z,12.10
2017-10-13T08:29:37.460Z,12.20
2017-10-13T08:32:06.610Z,12.30
2017-10-13T08:34:35.810Z,12.40
2017-10-13T08:37:05.008Z,12.50
2017-10-13T08:39:34.106Z,12.60
2017-10-13T08:42:04.423Z,12.70
2017-10-13T08:44:33.572Z,12.70
2017-10-13T08:47:02.803Z,12.80
2017-10-13T08:49:32.558Z,12.80
2017-10-13T08:52:02.599Z,12.80
2017-10-13T08:54:31.815Z,12.80
2017-10-13T08:57:01.939Z,12.70
2017-10-13T08:59:31.143Z,12.70
2017-10-13T09:02:00.418Z,12.70
2017-10-13T09:04:29.995Z,12.70
2017-10-13T09:06:59.948Z,12.90
2017-10-13T09:09:29.109Z,12.80
2017-10-13T09:11:59.770Z,13.00
2017-10-13T09:14:29.035Z,13.10
2017-10-13T09:16:58.314Z,13.30
2017-10-13T09:19:27.642Z,13.40
2017-10-13T09:21:56.958Z,13.50
2017-10-13T09:24:27.217Z,13.60
2017-10-13T09:26:56.597Z,13.70
2017-10-13T09:29:25.820Z,13.80
2017-10-13T09:31:55.123Z,14.00
2017-10-13T09:34:24.293Z,14.10
2017-10-13T09:36:53.483Z,14.10
2017-10-13T09:39:22.622Z,14.20
2017-10-13T09:41:52.685Z,14.20
2017-10-13T09:44:21.905Z,14.30
2017-10-13T09:46:51.100Z,14.30
2017-10-13T09:49:21.406Z,14.30
2017-10-13T09:51:51.490Z,14.30
2017-10-13T09:54:21.449Z,14.30
2017-10-13T09:56:50.672Z,14.30
2017-10-13T09:59:19.846Z,14.40
2017-10-13T10:01:49.490Z,14.40
2017-10-13T10:04:18.635Z,14.40
2017-10-13T10:06:48.143Z,14.50
2017-10-13T10:09:19.178Z,14.50
2017-10-13T10:11:48.293Z,14.60
2017-10-13T10:14:17.487Z,14.80
2017-10-13T10:16:47.586Z,14.90
2017-10-13T10:19:16.734Z,14.90
2017-10-13T10:21:57.046Z,15.00
2017-10-13T10:24:26.416Z,15.30
2017-10-13T10:27:04.088Z,15.50
2017-10-13T10:29:34.782Z,15.40
2017-10-13T10:32:08.072Z,15.60
2017-10-13T10:34:38.872Z,16.90
2017-10-13T10:37:08.102Z,16.90
2017-10-13T10:39:37.214Z,17.40
2017-10-13T10:42:07.927Z,18.00
2017-10-13T10:44:37.504Z,18.00
2017-10-13T10:47:06.745Z,18.20
2017-10-13T10:49:35.885Z,18.20
2017-10-13T10:52:05.874Z,18.80
2017-10-13T10:54:35.066Z,18.70
2017-10-13T10:57:04.167Z,18.80
2017-10-13T10:59:34.495Z,18.70
2017-10-13T11:02:03.660Z,18.40
2017-10-13T11:04:32.867Z,18.20
2017-10-13T11:07:04.400Z,18.30
2017-10-13T11:09:33.548Z,18.60
2017-10-13T11:12:03.142Z,18.60
2017-10-13T11:14:33.310Z,18.20
2017-10-13T11:17:02.556Z,18.20
2017-10-13T11:19:31.739Z,18.00
2017-10-13T11:22:01.061Z,17.70
2017-10-13T11:24:30.874Z,17.50
2017-10-13T11:27:00.154Z,17.40
2017-10-13T11:29:30.184Z,17.10
2017-10-13T11:31:59.595Z,17.60
2017-10-13T11:34:28.764Z,18.30
2017-10-13T11:36:59.018Z,18.90
2017-10-13T11:39:29.118Z,19.60
2017-10-13T11:41:59.486Z,19.60
2017-10-13T11:44:28.692Z,19.80
2017-10-13T11:46:58.648Z,20.50
2017-10-13T11:49:27.834Z,20.40
2017-10-13T11:51:59.514Z,20.30
2017-10-13T11:54:28.789Z,20.10
2017-10-13T11:56:58.101Z,19.80
2017-10-13T11:59:27.361Z,19.40
2017-10-13T12:01:56.630Z,19.00
2017-10-13T12:04:28.045Z,18.80
2017-10-13T12:06:58.779Z,18.90
2017-10-13T12:09:28.108Z,19.20
2017-10-13T12:11:57.294Z,19.50
2017-10-13T12:14:29.688Z,19.60
2017-10-13T12:17:00.891Z,19.60
2017-10-13T12:19:30.860Z,19.40
2017-10-13T12:22:00.828Z,19.20
2017-10-13T12:24:30.090Z,19.10
2017-10-13T12:27:01.428Z,19.00
2017-10-13T12:29:34.518Z,18.90
2017-10-13T12:32:04.634Z,18.90
2017-10-13T12:34:35.260Z,18.80
2017-10-13T12:37:04.758Z,18.60
2017-10-13T12:39:36.699Z,18.40
2017-10-13T12:42:05.873Z,18.10
2017-10-13T12:44:34.991Z,18.20
2017-10-13T12:47:06.235Z,18.20
2017-10-13T12:49:36.764Z,18.10
2017-10-13T12:52:08.245Z,18.00
2017-10-13T12:54:38.310Z,17.90
2017-10-13T12:57:07.665Z,17.90
2017-10-13T12:59:38.196Z,17.90
2017-10-13T13:02:08.099Z,18.10
2017-10-13T13:04:37.441Z,18.10
2017-10-13T13:07:07.246Z,18.10
2017-10-13T13:09:36.541Z,18.00
2017-10-13T13:12:05.736Z,18.10
2017-10-13T13:14:36.406Z,18.10
2017-10-13T13:17:09.396Z,18.00
2017-10-13T13:19:38.763Z,18.00
2017-10-13T13:22:08.793Z,18.10
2017-10-13T13:24:38.430Z,18.20
2017-10-13T13:27:09.108Z,18.20
2017-10-13T13:29:39.577Z,18.20
2017-10-13T13:32:12.436Z,18.20
2017-10-13T13:34:43.813Z,18.20
2017-10-13T13:37:17.071Z,18.00
2017-10-13T13:39:49.534Z,17.90
2017-10-13T13:42:21.189Z,17.70
2017-10-13T13:44:50.346Z,17.70
2017-10-13T13:47:19.446Z,17.70
2017-10-13T13:49:48.614Z,17.70
2017-10-13T13:52:17.751Z,17.60
2017-10-13T13:54:47.365Z,17.60
2017-10-13T13:57:16.673Z,17.50
2017-10-13T13:59:46.844Z,17.50
2017-10-13T14:02:16.803Z,17.40
2017-10-13T14:04:47.232Z,17.40
2017-10-13T14:07:16.735Z,17.30
2017-10-13T14:09:45.985Z,17.40
2017-10-13T14:12:17.628Z,17.40
2017-10-13T14:14:47.560Z,17.30
2017-10-13T14:17:17.881Z,17.30
2017-10-13T14:19:48.629Z,17.10
2017-10-13T14:22:20.132Z,17.20
2017-10-13T14:24:50.187Z,17.20
2017-10-13T14:27:21.307Z,17.10
2017-10-13T14:29:51.051Z,17.10
2017-10-13T14:32:22.139Z,17.00
2017-10-13T14:34:51.361Z,17.00
2017-10-13T14:37:20.483Z,17.00
2017-10-13T14:39:50.503Z,17.10
2017-10-13T14:42:20.618Z,17.00
2017-10-13T14:44:49.789Z,17.00
2017-10-13T14:47:19.114Z,16.90
2017-10-13T14:49:49.468Z,16.90
2017-10-13T14:52:18.773Z,16.90
2017-10-13T14:54:48.143Z,16.90
2017-10-13T14:57:17.904Z,16.80
2017-10-13T14:59:47.587Z,16.80
2017-10-13T15:02:18.082Z,16.70
2017-10-13T15:04:47.207Z,16.70
2017-10-13T15:07:16.482Z,16.70
2017-10-13T15:09:45.807Z,16.70
2017-10-13T15:12:14.899Z,16.60
2017-10-13T15:14:43.994Z,16.60
2017-10-13T15:17:14.385Z,16.60
2017-10-13T15:19:44.228Z,16.60
2017-10-13T15:22:13.339Z,16.60
2017-10-13T15:27:55.140Z,16.60
2017-10-13T15:33:41.983Z,16.50
2017-10-13T15:36:17.088Z,16.50
2017-10-13T15:41:57.298Z,16.40
2017-10-13T15:44:29.191Z,16.40
2017-10-13T15:47:04.285Z,16.40
2017-10-13T15:52:46.414Z,16.30
2017-10-13T15:55:15.568Z,16.30
2017-10-13T15:57:44.690Z,16.40
2017-10-13T16:00:14.671Z,16.30
2017-10-13T16:02:43.777Z,16.30
2017-10-13T16:05:13.304Z,16.30
2017-10-13T16:07:43.343Z,16.30
2017-10-13T16:10:13.227Z,16.30
2017-10-13T16:12:42.548Z,16.20
2017-10-13T16:15:11.675Z,16.20
2017-10-13T16:17:40.793Z,16.10
2017-10-13T16:20:09.937Z,16.10
2017-10-13T16:22:40.788Z,16.10
2017-10-13T16:25:10.854Z,16.10
2017-10-13T16:27:39.954Z,16.10
2017-10-13T16:30:09.951Z,16.10
2017-10-13T16:32:39.036Z,16.20
2017-10-13T16:35:08.150Z,16.20
2017-10-13T16:37:37.852Z,16.20
2017-10-13T16:40:07.338Z,16.10
2017-10-13T16:42:37.210Z,16.10
2017-10-13T16:45:06.735Z,16.10
2017-10-13T16:47:35.863Z,16.10
2017-10-13T16:50:04.972Z,16.00
2017-10-13T16:52:34.632Z,16.00
2017-10-13T16:55:04.991Z,16.10
2017-10-13T16:57:35.857Z,16.10
2017-10-13T17:00:05.484Z,16.10
2017-10-13T17:02:37.710Z,16.00
2017-10-13T17:05:06.900Z,16.00
2017-10-13T17:07:39.780Z,16.00
2017-10-13T17:10:09.781Z,16.00
2017-10-13T17:12:44.749Z,16.10
2017-10-13T17:15:13.870Z,16.10
2017-10-13T17:17:43.058Z,16.00
2017-10-13T17:20:13.173Z,16.00
2017-10-13T17:22:43.492Z,16.10
2017-10-13T17:25:13.806Z,16.10
2017-10-13T17:27:44.317Z,16.10
2017-10-13T17:30:15.970Z,16.10
2017-10-13T17:32:45.509Z,16.00
2017-10-13T17:35:14.599Z,16.00
2017-10-13T17:37:43.726Z,16.00
2017-10-13T17:40:14.158Z,16.00
2017-10-13T17:42:43.607Z,16.00
2017-10-13T17:45:13.967Z,16.00
2017-10-13T17:47:43.129Z,16.10
2017-10-13T17:50:12.234Z,16.00
2017-10-13T17:52:41.392Z,16.10
2017-10-13T17:55:11.044Z,16.10
2017-10-13T17:57:40.967Z,16.00
2017-10-13T18:00:11.566Z,16.10
2017-10-13T18:02:40.811Z,16.10
2017-10-13T18:05:10.683Z,16.10
2017-10-13T18:07:40.673Z,16.10
2017-10-13T18:10:10.748Z,16.00
2017-10-13T18:12:40.757Z,16.00
2017-10-13T18:15:09.876Z,16.00
2017-10-13T18:17:39.814Z,16.00
2017-10-13T18:20:08.927Z,16.00
2017-10-13T18:22:38.085Z,16.00
2017-10-13T18:25:08.004Z,16.10
2017-10-13T18:27:37.868Z,16.00
2017-10-13T18:30:06.986Z,16.10
2017-10-13T18:32:36.290Z,16.20
2017-10-13T18:35:05.583Z,16.20
2017-10-13T18:37:34.715Z,16.20
2017-10-13T18:40:04.868Z,16.20
2017-10-13T18:42:34.092Z,16.20
2017-10-13T18:45:03.295Z,16.20
2017-10-13T18:47:32.868Z,16.20
2017-10-13T18:50:03.623Z,16.30
2017-10-13T18:52:33.954Z,16.10
2017-10-13T18:55:03.929Z,16.20
2017-10-13T18:57:33.150Z,16.20
2017-10-13T19:00:02.674Z,16.20
2017-10-13T19:02:32.775Z,16.20
2017-10-13T19:05:02.093Z,16.20
2017-10-13T19:07:31.607Z,16.20
2017-10-13T19:10:01.917Z,16.30
2017-10-13T19:12:31.902Z,16.20
2017-10-13T19:15:01.385Z,16.20
2017-10-13T19:17:30.610Z,16.20
2017-10-13T19:19:59.874Z,16.20
2017-10-13T19:22:30.254Z,16.20
2017-10-13T19:24:59.476Z,16.20
2017-10-13T19:27:28.738Z,16.20
2017-10-13T19:29:58.088Z,16.20
2017-10-13T19:32:27.310Z,16.20
2017-10-13T19:34:57.342Z,16.20
2017-10-13T19:37:26.738Z,16.20
2017-10-13T19:39:56.706Z,16.20
2017-10-13T19:42:25.923Z,16.20
2017-10-13T19:44:56.444Z,16.20
2017-10-13T19:47:25.644Z,16.20
2017-10-13T19:49:54.815Z,16.20
2017-10-13T19:52:25.621Z,16.20
2017-10-13T19:54:54.772Z,16.20
2017-10-13T19:57:23.948Z,16.20
2017-10-13T19:59:53.589Z,16.20
2017-10-13T20:02:23.521Z,16.30
2017-10-13T20:04:52.691Z,16.20
2017-10-13T20:07:21.923Z,16.30
2017-10-13T20:09:51.059Z,16.30
2017-10-13T20:12:21.039Z,16.30
2017-10-13T20:14:51.302Z,16.30
2017-10-13T20:17:20.493Z,16.30
2017-10-13T20:19:49.608Z,16.30
2017-10-13T20:22:18.840Z,16.30
2017-10-13T20:24:47.949Z,16.30
2017-10-13T20:27:17.074Z,16.30
2017-10-13T20:29:46.556Z,16.30
2017-10-13T20:32:15.649Z,16.30
2017-10-13T20:34:44.757Z,16.30
2017-10-13T20:37:13.897Z,16.30
2017-10-13T20:39:44.142Z,16.30
2017-10-13T20:42:13.269Z,16.30
2017-10-13T20:44:43.206Z,16.30
2017-10-13T20:47:13.084Z,16.30
2017-10-13T20:49:42.287Z,16.30
2017-10-13T20:52:11.762Z,16.30
2017-10-13T20:54:40.914Z,16.30
2017-10-13T20:57:10.033Z,16.20
2017-10-13T20:59:39.186Z,16.20
2017-10-13T21:02:09.098Z,16.30
2017-10-13T21:04:38.205Z,16.20
2017-10-13T21:07:07.382Z,16.20
2017-10-13T21:09:36.505Z,16.20
2017-10-13T21:12:05.684Z,16.20
2017-10-13T21:14:35.662Z,16.20
2017-10-13T21:17:04.938Z,16.20
2017-10-13T21:19:34.128Z,16.20
2017-10-13T21:22:03.782Z,16.20
2017-10-13T21:24:32.980Z,16.20
2017-10-13T21:27:02.248Z,16.30
2017-10-13T21:29:31.486Z,16.20
2017-10-13T21:32:00.629Z,16.30
2017-10-13T21:34:31.385Z,16.30
2017-10-13T21:37:01.289Z,16.30
2017-10-13T21:39:31.302Z,16.40
2017-10-13T21:42:00.582Z,16.40
2017-10-13T21:44:31.476Z,16.30
2017-10-13T21:47:01.988Z,16.40
2017-10-13T21:49:31.253Z,16.40
2017-10-13T21:52:01.734Z,16.40
2017-10-13T21:54:31.773Z,16.40
2017-10-13T21:57:01.690Z,16.50
2017-10-13T21:59:32.067Z,16.50
2017-10-13T22:02:01.273Z,16.50
2017-10-13T22:04:30.454Z,16.50
2017-10-13T22:06:59.881Z,16.50
2017-10-13T22:09:29.881Z,16.50
2017-10-13T22:11:59.141Z,16.50
2017-10-13T22:14:28.399Z,16.50
2017-10-13T22:16:57.563Z,16.40
2017-10-13T22:19:26.843Z,16.40
2017-10-13T22:21:56.121Z,16.40
2017-10-13T22:24:26.014Z,16.30
2017-10-13T22:26:55.143Z,16.30
2017-10-13T22:29:24.877Z,16.30
2017-10-13T22:31:53.983Z,16.30
2017-10-13T22:34:23.306Z,16.30
2017-10-13T22:36:52.805Z,16.30
2017-10-13T22:39:21.893Z,16.30
2017-10-13T22:41:50.996Z,16.30
2017-10-13T22:44:21.216Z,16.40
2017-10-13T22:46:51.072Z,16.40
2017-10-13T22:49:20.163Z,16.40
2017-10-13T22:51:50.206Z,16.50
2017-10-13T22:54:19.299Z,16.50
2017-10-13T22:56:49.149Z,16.50
2017-10-13T22:59:18.382Z,16.50
2017-10-13T23:01:47.657Z,16.60
2017-10-13T23:04:16.746Z,16.60
2017-10-13T23:06:46.642Z,16.60
2017-10-13T23:09:15.756Z,16.60
2017-10-13T23:11:44.848Z,16.50
2017-10-13T23:14:14.354Z,16.50
2017-10-13T23:16:43.443Z,16.40
2017-10-13T23:19:12.528Z,16.40
2017-10-13T23:21:43.254Z,16.40
2017-10-13T23:24:13.850Z,16.40
2017-10-13T23:26:42.971Z,16.40
2017-10-13T23:29:12.853Z,16.40
2017-10-13T23:31:42.705Z,16.50
2017-10-13T23:34:11.795Z,16.40
2017-10-13T23:36:42.291Z,16.50
2017-10-13T23:39:11.402Z,16.50
2017-10-13T23:41:40.514Z,16.50
2017-10-13T23:44:10.026Z,16.50
2017-10-13T23:46:39.114Z,16.50
2017-10-13T23:49:08.202Z,16.50
2017-10-13T23:51:37.403Z,16.50
2017-10-13T23:54:07.261Z,16.60
2017-10-13T23:56:36.358Z,16.50
2017-10-13T23:59:05.609Z,16.60
